sensor_id;sensor_type;location;lat;lon;timestamp;pressure;altitude;pressure_sealevel;temperature;humidity
8398;BME280;4236;54.504;9.588;2023-05-09T00:01:31;102016.34;;;12.44;61.23
8398;BME280;4236;54.504;9.588;2023-05-09T00:04:54;102019.22;;;12.42;61.07
8398;BME280;4236;54.504;9.588;2023-05-09T00:07:25;102015.03;;;12.40;61.46
8398;BME280;4236;54.504;9.588;2023-05-09T00:09:57;102011.91;;;12.36;61.40
8398;BME280;4236;54.504;9.588;2023-05-09T00:12:47;101998.22;;;12.31;61.43
8398;BME280;4236;54.504;9.588;2023-05-09T00:16:09;102004.59;;;12.30;62.42
8398;BME280;4236;54.504;9.588;2023-05-09T00:19:10;101995.25;;;12.26;62.75
8398;BME280;4236;54.504;9.588;2023-05-09T00:22:07;101981.22;;;12.24;62.50
8398;BME280;4236;54.504;9.588;2023-05-09T00:25:05;101982.38;;;12.21;62.52
8398;BME280;4236;54.504;9.588;2023-05-09T00:30:51;101974.44;;;12.13;63.58
8398;BME280;4236;54.504;9.588;2023-05-09T00:33:45;101976.47;;;12.11;63.76
8398;BME280;4236;54.504;9.588;2023-05-09T00:36:12;101977.81;;;12.07;64.38
8398;BME280;4236;54.504;9.588;2023-05-09T00:39:21;101985.00;;;12.07;64.29
8398;BME280;4236;54.504;9.588;2023-05-09T00:42:16;101981.66;;;12.05;64.50
8398;BME280;4236;54.504;9.588;2023-05-09T00:44:57;101979.53;;;12.00;65.55
8398;BME280;4236;54.504;9.588;2023-05-09T00:47:40;101969.00;;;11.99;65.23
8398;BME280;4236;54.504;9.588;2023-05-09T00:50:36;101972.88;;;11.96;65.21
8398;BME280;4236;54.504;9.588;2023-05-09T00:53:55;101970.34;;;11.95;65.20
8398;BME280;4236;54.504;9.588;2023-05-09T00:56:58;101977.91;;;11.91;65.62
8398;BME280;4236;54.504;9.588;2023-05-09T00:59:32;101963.03;;;11.89;65.65
8398;BME280;4236;54.504;9.588;2023-05-09T01:02:02;101963.38;;;11.86;65.93
8398;BME280;4236;54.504;9.588;2023-05-09T01:04:38;101961.06;;;11.83;66.22
8398;BME280;4236;54.504;9.588;2023-05-09T01:07:23;101958.09;;;11.78;66.77
8398;BME280;4236;54.504;9.588;2023-05-09T01:10:49;101952.25;;;11.74;67.46
8398;BME280;4236;54.504;9.588;2023-05-09T01:13:50;101952.44;;;11.73;67.71
8398;BME280;4236;54.504;9.588;2023-05-09T01:17:24;101951.81;;;11.71;67.46
8398;BME280;4236;54.504;9.588;2023-05-09T01:20:45;101949.13;;;11.71;67.54
8398;BME280;4236;54.504;9.588;2023-05-09T01:28:12;101938.09;;;11.74;68.79
8398;BME280;4236;54.504;9.588;2023-05-09T01:31:29;101926.38;;;11.75;68.58
8398;BME280;4236;54.504;9.588;2023-05-09T01:34:40;101926.03;;;11.78;68.46
8398;BME280;4236;54.504;9.588;2023-05-09T01:38:10;101929.53;;;11.78;68.53
8398;BME280;4236;54.504;9.588;2023-05-09T01:41:41;101922.69;;;11.76;68.66
8398;BME280;4236;54.504;9.588;2023-05-09T01:44:16;101918.53;;;11.73;68.92
8398;BME280;4236;54.504;9.588;2023-05-09T01:47:13;101925.41;;;11.68;68.95
8398;BME280;4236;54.504;9.588;2023-05-09T01:50:00;101923.72;;;11.66;68.82
8398;BME280;4236;54.504;9.588;2023-05-09T01:52:28;101914.22;;;11.64;69.39
8398;BME280;4236;54.504;9.588;2023-05-09T01:55:04;101920.75;;;11.61;69.41
8398;BME280;4236;54.504;9.588;2023-05-09T01:58:08;101918.59;;;11.57;69.64
8398;BME280;4236;54.504;9.588;2023-05-09T02:00:46;101921.44;;;11.55;70.31
8398;BME280;4236;54.504;9.588;2023-05-09T02:03:21;101919.78;;;11.54;70.30
8398;BME280;4236;54.504;9.588;2023-05-09T02:05:51;101920.97;;;11.52;70.76
8398;BME280;4236;54.504;9.588;2023-05-09T02:08:49;101911.47;;;11.49;71.04
8398;BME280;4236;54.504;9.588;2023-05-09T02:11:26;101913.63;;;11.46;72.02
8398;BME280;4236;54.504;9.588;2023-05-09T02:13:54;101902.31;;;11.44;72.04
8398;BME280;4236;54.504;9.588;2023-05-09T02:16:22;101901.47;;;11.43;72.84
8398;BME280;4236;54.504;9.588;2023-05-09T02:18:51;101900.97;;;11.40;72.91
8398;BME280;4236;54.504;9.588;2023-05-09T02:21:19;101901.13;;;11.38;73.42
8398;BME280;4236;54.504;9.588;2023-05-09T02:23:47;101897.16;;;11.34;73.71
8398;BME280;4236;54.504;9.588;2023-05-09T02:26:15;101891.81;;;11.34;73.94
8398;BME280;4236;54.504;9.588;2023-05-09T02:28:44;101882.50;;;11.30;74.86
8398;BME280;4236;54.504;9.588;2023-05-09T02:31:13;101863.97;;;11.29;74.84
8398;BME280;4236;54.504;9.588;2023-05-09T02:33:44;101874.66;;;11.29;74.31
8398;BME280;4236;54.504;9.588;2023-05-09T02:36:14;101881.84;;;11.28;74.53
8398;BME280;4236;54.504;9.588;2023-05-09T02:38:43;101880.34;;;11.26;75.95
8398;BME280;4236;54.504;9.588;2023-05-09T02:41:12;101884.84;;;11.25;75.91
8398;BME280;4236;54.504;9.588;2023-05-09T02:43:40;101875.34;;;11.23;76.55
8398;BME280;4236;54.504;9.588;2023-05-09T02:46:09;101876.50;;;11.20;76.96
8398;BME280;4236;54.504;9.588;2023-05-09T02:48:36;101875.22;;;11.16;77.94
8398;BME280;4236;54.504;9.588;2023-05-09T02:51:04;101866.72;;;11.13;79.25
8398;BME280;4236;54.504;9.588;2023-05-09T02:53:33;101869.53;;;11.11;79.53
8398;BME280;4236;54.504;9.588;2023-05-09T02:56:01;101867.22;;;11.08;79.45
8398;BME280;4236;54.504;9.588;2023-05-09T02:58:29;101867.22;;;11.08;80.15
8398;BME280;4236;54.504;9.588;2023-05-09T03:00:57;101861.22;;;11.06;80.53
8398;BME280;4236;54.504;9.588;2023-05-09T03:03:24;101858.25;;;11.01;81.81
8398;BME280;4236;54.504;9.588;2023-05-09T03:05:52;101850.25;;;11.01;81.60
8398;BME280;4236;54.504;9.588;2023-05-09T03:08:20;101862.25;;;10.97;83.14
8398;BME280;4236;54.504;9.588;2023-05-09T03:10:49;101853.41;;;10.96;83.82
8398;BME280;4236;54.504;9.588;2023-05-09T03:13:16;101864.91;;;10.97;82.62
8398;BME280;4236;54.504;9.588;2023-05-09T03:15:44;101852.59;;;10.96;83.68
8398;BME280;4236;54.504;9.588;2023-05-09T03:18:12;101849.25;;;10.94;85.02
8398;BME280;4236;54.504;9.588;2023-05-09T03:20:39;101842.44;;;10.91;84.60
8398;BME280;4236;54.504;9.588;2023-05-09T03:23:07;101832.41;;;10.93;85.17
8398;BME280;4236;54.504;9.588;2023-05-09T03:25:35;101832.09;;;10.88;87.71
8398;BME280;4236;54.504;9.588;2023-05-09T03:28:04;101832.09;;;10.88;87.15
8398;BME280;4236;54.504;9.588;2023-05-09T03:30:32;101826.94;;;10.87;87.67
8398;BME280;4236;54.504;9.588;2023-05-09T03:32:59;101826.25;;;10.85;89.02
8398;BME280;4236;54.504;9.588;2023-05-09T03:35:27;101824.63;;;10.84;89.61
8398;BME280;4236;54.504;9.588;2023-05-09T03:37:55;101824.78;;;10.82;90.13
8398;BME280;4236;54.504;9.588;2023-05-09T03:40:22;101823.78;;;10.83;90.73
8398;BME280;4236;54.504;9.588;2023-05-09T03:42:50;101823.78;;;10.83;90.73
8398;BME280;4236;54.504;9.588;2023-05-09T03:45:19;101812.91;;;10.85;90.90
8398;BME280;4236;54.504;9.588;2023-05-09T03:47:47;101821.28;;;10.82;92.58
8398;BME280;4236;54.504;9.588;2023-05-09T03:50:15;101820.28;;;10.83;92.46
8398;BME280;4236;54.504;9.588;2023-05-09T03:52:43;101824.97;;;10.81;93.85
8398;BME280;4236;54.504;9.588;2023-05-09T03:55:10;101817.59;;;10.83;93.94
8398;BME280;4236;54.504;9.588;2023-05-09T03:57:38;101825.28;;;10.86;94.66
8398;BME280;4236;54.504;9.588;2023-05-09T04:00:07;101826.59;;;10.90;93.26
8398;BME280;4236;54.504;9.588;2023-05-09T04:02:37;101825.91;;;10.96;93.35
8398;BME280;4236;54.504;9.588;2023-05-09T04:05:05;101822.56;;;11.02;93.64
8398;BME280;4236;54.504;9.588;2023-05-09T04:07:33;101817.81;;;11.12;92.35
8398;BME280;4236;54.504;9.588;2023-05-09T04:10:01;101833.28;;;11.25;91.77
8398;BME280;4236;54.504;9.588;2023-05-09T04:12:28;101826.06;;;11.33;91.25
8398;BME280;4236;54.504;9.588;2023-05-09T04:14:56;101822.63;;;11.47;90.58
8398;BME280;4236;54.504;9.588;2023-05-09T04:17:24;101823.19;;;11.65;89.52
8398;BME280;4236;54.504;9.588;2023-05-09T04:19:53;101813.63;;;11.79;88.82
8398;BME280;4236;54.504;9.588;2023-05-09T04:22:20;101813.31;;;11.97;86.91
8398;BME280;4236;54.504;9.588;2023-05-09T04:24:48;101814.16;;;11.97;85.75
8398;BME280;4236;54.504;9.588;2023-05-09T04:27:16;101815.78;;;12.21;85.96
8398;BME280;4236;54.504;9.588;2023-05-09T04:29:43;101815.28;;;12.84;83.10
8398;BME280;4236;54.504;9.588;2023-05-09T04:32:11;101805.97;;;13.45;76.98
8398;BME280;4236;54.504;9.588;2023-05-09T04:34:39;101815.81;;;14.02;71.54
8398;BME280;4236;54.504;9.588;2023-05-09T04:37:08;101813.72;;;14.46;70.17
8398;BME280;4236;54.504;9.588;2023-05-09T04:39:36;101816.91;;;14.97;68.83
8398;BME280;4236;54.504;9.588;2023-05-09T04:42:04;101811.22;;;15.74;66.50
8398;BME280;4236;54.504;9.588;2023-05-09T04:44:32;101813.28;;;16.50;63.58
8398;BME280;4236;54.504;9.588;2023-05-09T04:47:01;101813.31;;;17.21;59.75
8398;BME280;4236;54.504;9.588;2023-05-09T04:49:29;101808.44;;;17.81;58.40
8398;BME280;4236;54.504;9.588;2023-05-09T04:51:57;101808.81;;;17.84;57.23
8398;BME280;4236;54.504;9.588;2023-05-09T04:54:26;101808.31;;;17.25;54.88
8398;BME280;4236;54.504;9.588;2023-05-09T04:56:54;101802.53;;;16.57;55.84
8398;BME280;4236;54.504;9.588;2023-05-09T04:59:39;101795.09;;;15.93;58.08
8398;BME280;4236;54.504;9.588;2023-05-09T05:02:07;101791.38;;;15.21;58.89
8398;BME280;4236;54.504;9.588;2023-05-09T05:04:34;101788.50;;;14.81;60.41
8398;BME280;4236;54.504;9.588;2023-05-09T05:07:02;101789.78;;;14.23;62.98
8398;BME280;4236;54.504;9.588;2023-05-09T05:09:31;101790.25;;;14.06;64.33
8398;BME280;4236;54.504;9.588;2023-05-09T05:11:59;101794.28;;;13.95;65.84
8398;BME280;4236;54.504;9.588;2023-05-09T05:14:30;101784.22;;;13.97;66.98
8398;BME280;4236;54.504;9.588;2023-05-09T05:16:57;101796.69;;;14.60;66.68
8398;BME280;4236;54.504;9.588;2023-05-09T05:19:25;101801.84;;;14.96;65.76
8398;BME280;4236;54.504;9.588;2023-05-09T05:21:53;101800.75;;;15.44;64.76
8398;BME280;4236;54.504;9.588;2023-05-09T05:24:21;101800.06;;;16.10;61.58
8398;BME280;4236;54.504;9.588;2023-05-09T05:26:50;101794.66;;;16.36;62.34
8398;BME280;4236;54.504;9.588;2023-05-09T05:29:19;101790.53;;;16.00;60.87
8398;BME280;4236;54.504;9.588;2023-05-09T05:31:47;101783.91;;;15.96;59.60
8398;BME280;4236;54.504;9.588;2023-05-09T05:34:14;101784.31;;;15.67;60.34
8398;BME280;4236;54.504;9.588;2023-05-09T05:36:42;101771.41;;;15.43;60.28
8398;BME280;4236;54.504;9.588;2023-05-09T05:39:10;101766.16;;;15.15;60.93
8398;BME280;4236;54.504;9.588;2023-05-09T05:41:38;101760.25;;;14.85;61.67
8398;BME280;4236;54.504;9.588;2023-05-09T05:44:07;101765.50;;;15.07;62.53
8398;BME280;4236;54.504;9.588;2023-05-09T05:46:35;101751.72;;;15.36;61.15
8398;BME280;4236;54.504;9.588;2023-05-09T05:49:03;101751.38;;;16.57;59.14
8398;BME280;4236;54.504;9.588;2023-05-09T05:51:31;101737.16;;;17.95;56.89
8398;BME280;4236;54.504;9.588;2023-05-09T05:53:59;101731.16;;;18.90;52.10
8398;BME280;4236;54.504;9.588;2023-05-09T05:56:27;101732.53;;;19.82;51.25
8398;BME280;4236;54.504;9.588;2023-05-09T05:58:56;101726.22;;;20.86;46.89
8398;BME280;4236;54.504;9.588;2023-05-09T06:01:26;101719.84;;;20.92;44.45
8398;BME280;4236;54.504;9.588;2023-05-09T06:03:54;101725.25;;;21.48;43.64
8398;BME280;4236;54.504;9.588;2023-05-09T06:06:23;101717.97;;;21.82;42.67
8398;BME280;4236;54.504;9.588;2023-05-09T06:08:51;101727.34;;;22.46;43.70
8398;BME280;4236;54.504;9.588;2023-05-09T06:11:18;101731.38;;;22.82;41.58
8398;BME280;4236;54.504;9.588;2023-05-09T06:13:46;101726.63;;;22.94;41.71
8398;BME280;4236;54.504;9.588;2023-05-09T06:16:14;101722.13;;;23.53;40.81
8398;BME280;4236;54.504;9.588;2023-05-09T06:18:47;101714.50;;;23.55;38.25
8398;BME280;4236;54.504;9.588;2023-05-09T06:21:15;101712.41;;;24.04;39.11
8398;BME280;4236;54.504;9.588;2023-05-09T06:23:42;101711.34;;;24.42;37.03
8398;BME280;4236;54.504;9.588;2023-05-09T06:26:30;101713.56;;;24.55;38.11
8398;BME280;4236;54.504;9.588;2023-05-09T06:28:58;101716.47;;;24.91;36.24
8398;BME280;4236;54.504;9.588;2023-05-09T06:31:26;101709.91;;;24.87;34.66
8398;BME280;4236;54.504;9.588;2023-05-09T06:33:55;101712.16;;;25.10;37.56
8398;BME280;4236;54.504;9.588;2023-05-09T06:36:22;101704.34;;;24.66;35.33
8398;BME280;4236;54.504;9.588;2023-05-09T06:38:50;101699.56;;;25.04;34.94
8398;BME280;4236;54.504;9.588;2023-05-09T06:41:18;101699.56;;;25.04;34.82
8398;BME280;4236;54.504;9.588;2023-05-09T06:43:47;101676.56;;;24.74;34.95
8398;BME280;4236;54.504;9.588;2023-05-09T06:46:15;101676.41;;;25.16;37.26
8398;BME280;4236;54.504;9.588;2023-05-09T06:48:43;101670.97;;;25.26;35.49
8398;BME280;4236;54.504;9.588;2023-05-09T06:51:12;101665.22;;;25.33;34.64
8398;BME280;4236;54.504;9.588;2023-05-09T06:53:39;101664.63;;;24.96;35.85
8398;BME280;4236;54.504;9.588;2023-05-09T06:56:08;101673.41;;;25.08;35.58
8398;BME280;4236;54.504;9.588;2023-05-09T06:58:35;101663.03;;;25.40;34.51
8398;BME280;4236;54.504;9.588;2023-05-09T07:01:03;101664.59;;;24.86;35.00
8398;BME280;4236;54.504;9.588;2023-05-09T07:03:31;101645.00;;;24.99;35.71
8398;BME280;4236;54.504;9.588;2023-05-09T07:05:59;101651.41;;;24.67;35.50
8398;BME280;4236;54.504;9.588;2023-05-09T07:08:28;101642.44;;;24.72;35.70
8398;BME280;4236;54.504;9.588;2023-05-09T07:10:57;101636.28;;;25.32;35.50
8398;BME280;4236;54.504;9.588;2023-05-09T07:13:24;101633.84;;;25.61;34.84
8398;BME280;4236;54.504;9.588;2023-05-09T07:15:52;101633.56;;;25.72;35.96
8398;BME280;4236;54.504;9.588;2023-05-09T07:18:20;101633.59;;;25.62;34.62
8398;BME280;4236;54.504;9.588;2023-05-09T07:20:48;101632.47;;;25.68;35.07
8398;BME280;4236;54.504;9.588;2023-05-09T07:23:16;101635.72;;;25.10;34.99
8398;BME280;4236;54.504;9.588;2023-05-09T07:25:45;101641.72;;;25.27;35.68
8398;BME280;4236;54.504;9.588;2023-05-09T07:28:13;101644.72;;;25.00;34.72
8398;BME280;4236;54.504;9.588;2023-05-09T07:30:41;101640.00;;;24.75;35.35
8398;BME280;4236;54.504;9.588;2023-05-09T07:33:09;101630.31;;;24.33;35.71
8398;BME280;4236;54.504;9.588;2023-05-09T07:35:37;101618.34;;;24.39;36.07
8398;BME280;4236;54.504;9.588;2023-05-09T07:38:04;101617.81;;;24.42;36.34
8398;BME280;4236;54.504;9.588;2023-05-09T07:40:32;101615.69;;;24.02;36.53
8398;BME280;4236;54.504;9.588;2023-05-09T07:43:03;101616.28;;;23.67;36.97
8398;BME280;4236;54.504;9.588;2023-05-09T07:45:31;101609.69;;;23.26;37.79
8398;BME280;4236;54.504;9.588;2023-05-09T07:47:59;101603.94;;;23.23;38.11
8398;BME280;4236;54.504;9.588;2023-05-09T07:50:26;101604.38;;;23.09;37.98
8398;BME280;4236;54.504;9.588;2023-05-09T07:52:54;101595.81;;;22.96;38.72
8398;BME280;4236;54.504;9.588;2023-05-09T07:55:22;101602.75;;;22.33;40.51
8398;BME280;4236;54.504;9.588;2023-05-09T07:57:49;101584.16;;;21.87;41.15
8398;BME280;4236;54.504;9.588;2023-05-09T08:00:19;101581.94;;;21.62;42.39
8398;BME280;4236;54.504;9.588;2023-05-09T08:02:49;101592.06;;;21.17;42.44
8398;BME280;4236;54.504;9.588;2023-05-09T08:05:17;101588.75;;;21.15;42.97
8398;BME280;4236;54.504;9.588;2023-05-09T08:07:45;101592.19;;;20.93;42.75
8398;BME280;4236;54.504;9.588;2023-05-09T08:10:12;101591.06;;;20.78;43.91
8398;BME280;4236;54.504;9.588;2023-05-09T08:12:40;101584.19;;;20.87;44.54
8398;BME280;4236;54.504;9.588;2023-05-09T08:15:08;101565.84;;;20.77;44.28
8398;BME280;4236;54.504;9.588;2023-05-09T08:17:37;101566.38;;;21.08;44.59
8398;BME280;4236;54.504;9.588;2023-05-09T08:20:06;101569.25;;;21.01;44.95
8398;BME280;4236;54.504;9.588;2023-05-09T08:22:34;101559.34;;;21.23;44.39
8398;BME280;4236;54.504;9.588;2023-05-09T08:25:02;101561.00;;;20.79;45.03
8398;BME280;4236;54.504;9.588;2023-05-09T08:27:30;101564.38;;;20.86;44.49
8398;BME280;4236;54.504;9.588;2023-05-09T08:29:58;101563.34;;;21.21;44.18
8398;BME280;4236;54.504;9.588;2023-05-09T08:32:26;101559.53;;;20.88;44.33
8398;BME280;4236;54.504;9.588;2023-05-09T08:34:55;101563.41;;;20.92;44.63
8398;BME280;4236;54.504;9.588;2023-05-09T08:37:22;101564.81;;;20.95;44.42
8398;BME280;4236;54.504;9.588;2023-05-09T08:39:50;101552.72;;;20.86;44.85
8398;BME280;4236;54.504;9.588;2023-05-09T08:42:18;101559.31;;;20.62;45.27
8398;BME280;4236;54.504;9.588;2023-05-09T08:44:51;101553.81;;;20.57;45.93
8398;BME280;4236;54.504;9.588;2023-05-09T08:47:20;101554.34;;;20.42;46.19
8398;BME280;4236;54.504;9.588;2023-05-09T08:49:49;101549.50;;;20.44;46.51
8398;BME280;4236;54.504;9.588;2023-05-09T08:52:19;101542.56;;;20.65;47.09
8398;BME280;4236;54.504;9.588;2023-05-09T08:54:47;101549.06;;;20.64;46.41
8398;BME280;4236;54.504;9.588;2023-05-09T08:57:14;101545.91;;;20.83;46.51
8398;BME280;4236;54.504;9.588;2023-05-09T08:59:42;101544.75;;;20.96;46.50
8398;BME280;4236;54.504;9.588;2023-05-09T09:02:13;101538.25;;;20.97;46.68
8398;BME280;4236;54.504;9.588;2023-05-09T09:04:41;101544.34;;;21.04;46.39
8398;BME280;4236;54.504;9.588;2023-05-09T09:07:11;101534.28;;;21.16;46.29
8398;BME280;4236;54.504;9.588;2023-05-09T09:09:43;101519.94;;;20.87;46.63
8398;BME280;4236;54.504;9.588;2023-05-09T09:12:14;101518.19;;;20.65;47.77
8398;BME280;4236;54.504;9.588;2023-05-09T09:14:46;101519.19;;;20.92;47.62
8398;BME280;4236;54.504;9.588;2023-05-09T09:17:18;101517.28;;;20.59;48.04
8398;BME280;4236;54.504;9.588;2023-05-09T09:19:48;101517.75;;;20.56;48.09
8398;BME280;4236;54.504;9.588;2023-05-09T09:22:18;101511.47;;;20.84;47.22
8398;BME280;4236;54.504;9.588;2023-05-09T09:24:47;101513.47;;;21.22;47.76
8398;BME280;4236;54.504;9.588;2023-05-09T09:27:15;101502.78;;;21.32;47.33
8398;BME280;4236;54.504;9.588;2023-05-09T09:29:43;101507.34;;;21.48;47.42
8398;BME280;4236;54.504;9.588;2023-05-09T09:32:10;101497.75;;;21.07;47.77
8398;BME280;4236;54.504;9.588;2023-05-09T09:34:38;101504.00;;;21.24;49.00
8398;BME280;4236;54.504;9.588;2023-05-09T09:37:06;101507.13;;;21.33;48.13
8398;BME280;4236;54.504;9.588;2023-05-09T09:39:34;101499.56;;;21.18;48.73
8398;BME280;4236;54.504;9.588;2023-05-09T09:42:12;101498.63;;;21.46;49.28
8398;BME280;4236;54.504;9.588;2023-05-09T09:44:40;101498.34;;;21.64;48.98
8398;BME280;4236;54.504;9.588;2023-05-09T09:47:09;101490.81;;;21.88;49.05
8398;BME280;4236;54.504;9.588;2023-05-09T09:49:37;101484.13;;;21.79;48.34
8398;BME280;4236;54.504;9.588;2023-05-09T09:52:21;101481.78;;;21.66;48.78
8398;BME280;4236;54.504;9.588;2023-05-09T09:54:49;101489.44;;;21.47;48.88
8398;BME280;4236;54.504;9.588;2023-05-09T10:00:11;101476.44;;;21.71;49.34
8398;BME280;4236;54.504;9.588;2023-05-09T10:02:49;101471.66;;;21.56;49.07
8398;BME280;4236;54.504;9.588;2023-05-09T10:05:19;101468.47;;;21.64;49.44
8398;BME280;4236;54.504;9.588;2023-05-09T10:07:53;101467.59;;;22.02;49.18
8398;BME280;4236;54.504;9.588;2023-05-09T10:10:21;101461.78;;;22.15;49.04
8398;BME280;4236;54.504;9.588;2023-05-09T10:12:53;101467.31;;;22.25;48.81
8398;BME280;4236;54.504;9.588;2023-05-09T10:15:25;101466.69;;;22.45;48.74
8398;BME280;4236;54.504;9.588;2023-05-09T10:17:57;101452.53;;;22.16;48.03
8398;BME280;4236;54.504;9.588;2023-05-09T10:20:26;101455.53;;;22.15;48.60
8398;BME280;4236;54.504;9.588;2023-05-09T10:22:56;101461.50;;;22.17;48.43
8398;BME280;4236;54.504;9.588;2023-05-09T10:25:27;101435.53;;;21.99;49.82
8398;BME280;4236;54.504;9.588;2023-05-09T10:27:59;101441.75;;;22.21;49.52
8398;BME280;4236;54.504;9.588;2023-05-09T10:30:30;101426.31;;;22.58;48.83
8398;BME280;4236;54.504;9.588;2023-05-09T10:33:02;101418.09;;;22.48;49.88
8398;BME280;4236;54.504;9.588;2023-05-09T10:35:32;101420.75;;;22.43;50.39
8398;BME280;4236;54.504;9.588;2023-05-09T10:38:03;101418.94;;;22.54;50.39
8398;BME280;4236;54.504;9.588;2023-05-09T10:40:31;101413.56;;;22.64;49.97
8398;BME280;4236;54.504;9.588;2023-05-09T10:42:59;101412.78;;;22.64;50.12
8398;BME280;4236;54.504;9.588;2023-05-09T10:45:28;101405.94;;;22.61;49.83
8398;BME280;4236;54.504;9.588;2023-05-09T10:47:56;101403.03;;;22.68;50.38
8398;BME280;4236;54.504;9.588;2023-05-09T10:50:25;101399.03;;;22.75;49.17
8398;BME280;4236;54.504;9.588;2023-05-09T10:53:07;101392.88;;;22.58;49.07
8398;BME280;4236;54.504;9.588;2023-05-09T10:55:38;101392.31;;;22.56;49.87
8398;BME280;4236;54.504;9.588;2023-05-09T10:58:18;101377.50;;;22.69;50.04
8398;BME280;4236;54.504;9.588;2023-05-09T11:00:48;101378.16;;;22.86;49.52
8398;BME280;4236;54.504;9.588;2023-05-09T11:03:16;101380.31;;;22.84;48.91
8398;BME280;4236;54.504;9.588;2023-05-09T11:05:45;101368.97;;;22.97;49.09
8398;BME280;4236;54.504;9.588;2023-05-09T11:08:26;101359.44;;;22.94;48.68
8398;BME280;4236;54.504;9.588;2023-05-09T11:10:55;101360.25;;;22.95;49.36
8398;BME280;4236;54.504;9.588;2023-05-09T11:13:24;101351.31;;;22.99;47.33
8398;BME280;4236;54.504;9.588;2023-05-09T11:16:10;101351.44;;;23.25;48.23
8398;BME280;4236;54.504;9.588;2023-05-09T11:18:51;101341.13;;;23.32;47.31
8398;BME280;4236;54.504;9.588;2023-05-09T11:21:20;101334.50;;;23.12;46.56
8398;BME280;4236;54.504;9.588;2023-05-09T11:23:48;101332.75;;;22.86;47.63
8398;BME280;4236;54.504;9.588;2023-05-09T11:26:20;101329.22;;;23.43;47.40
8398;BME280;4236;54.504;9.588;2023-05-09T11:28:53;101340.19;;;23.78;47.27
8398;BME280;4236;54.504;9.588;2023-05-09T11:31:23;101323.59;;;23.80;45.89
8398;BME280;4236;54.504;9.588;2023-05-09T11:33:51;101304.38;;;23.29;45.09
8398;BME280;4236;54.504;9.588;2023-05-09T11:36:30;101319.66;;;23.35;45.86
8398;BME280;4236;54.504;9.588;2023-05-09T11:39:01;101311.47;;;23.35;45.08
8398;BME280;4236;54.504;9.588;2023-05-09T11:41:29;101302.72;;;23.28;45.55
8398;BME280;4236;54.504;9.588;2023-05-09T11:43:57;101293.31;;;23.56;44.49
8398;BME280;4236;54.504;9.588;2023-05-09T11:46:27;101303.13;;;23.67;45.20
8398;BME280;4236;54.504;9.588;2023-05-09T11:48:55;101296.59;;;23.53;43.51
8398;BME280;4236;54.504;9.588;2023-05-09T11:51:23;101289.56;;;23.77;44.50
8398;BME280;4236;54.504;9.588;2023-05-09T11:53:52;101284.34;;;23.50;44.19
8398;BME280;4236;54.504;9.588;2023-05-09T11:56:19;101288.16;;;23.69;43.57
8398;BME280;4236;54.504;9.588;2023-05-09T11:58:50;101288.97;;;23.70;42.60
8398;BME280;4236;54.504;9.588;2023-05-09T12:01:18;101290.09;;;23.94;43.06
8398;BME280;4236;54.504;9.588;2023-05-09T12:03:48;101280.28;;;24.03;42.68
8398;BME280;4236;54.504;9.588;2023-05-09T12:06:16;101281.38;;;24.02;42.18
8398;BME280;4236;54.504;9.588;2023-05-09T12:08:44;101291.19;;;23.88;42.00
8398;BME280;4236;54.504;9.588;2023-05-09T12:11:13;101273.22;;;23.92;41.58
8398;BME280;4236;54.504;9.588;2023-05-09T12:13:45;101270.22;;;24.14;41.22
8398;BME280;4236;54.504;9.588;2023-05-09T12:16:13;101267.22;;;24.31;41.15
8398;BME280;4236;54.504;9.588;2023-05-09T12:18:46;101265.31;;;24.11;41.31
8398;BME280;4236;54.504;9.588;2023-05-09T12:21:15;101265.88;;;24.23;41.80
8398;BME280;4236;54.504;9.588;2023-05-09T12:23:43;101269.66;;;24.32;41.51
8398;BME280;4236;54.504;9.588;2023-05-09T12:26:10;101271.31;;;24.18;40.50
8398;BME280;4236;54.504;9.588;2023-05-09T12:28:38;101271.59;;;24.11;41.04
8398;BME280;4236;54.504;9.588;2023-05-09T12:31:06;101266.94;;;24.37;40.88
8398;BME280;4236;54.504;9.588;2023-05-09T12:33:36;101268.03;;;24.06;40.69
8398;BME280;4236;54.504;9.588;2023-05-09T12:36:06;101271.88;;;24.15;40.06
8398;BME280;4236;54.504;9.588;2023-05-09T12:38:37;101266.13;;;24.32;40.60
8398;BME280;4236;54.504;9.588;2023-05-09T12:41:05;101263.38;;;24.47;40.02
8398;BME280;4236;54.504;9.588;2023-05-09T12:43:48;101270.13;;;24.64;40.20
8398;BME280;4236;54.504;9.588;2023-05-09T12:46:17;101262.50;;;24.61;39.67
8398;BME280;4236;54.504;9.588;2023-05-09T12:48:45;101257.94;;;24.52;38.97
8398;BME280;4236;54.504;9.588;2023-05-09T12:51:17;101263.69;;;24.25;39.27
8398;BME280;4236;54.504;9.588;2023-05-09T12:53:46;101259.31;;;24.24;39.95
8398;BME280;4236;54.504;9.588;2023-05-09T12:56:16;101252.50;;;24.32;39.35
8398;BME280;4236;54.504;9.588;2023-05-09T12:58:48;101255.78;;;24.18;39.28
8398;BME280;4236;54.504;9.588;2023-05-09T13:01:16;101262.06;;;24.19;38.87
8398;BME280;4236;54.504;9.588;2023-05-09T13:03:50;101242.97;;;23.94;39.11
8398;BME280;4236;54.504;9.588;2023-05-09T13:06:18;101254.69;;;23.74;39.53
8398;BME280;4236;54.504;9.588;2023-05-09T13:08:57;101250.31;;;23.93;38.96
8398;BME280;4236;54.504;9.588;2023-05-09T13:11:27;101235.59;;;23.84;39.24
8398;BME280;4236;54.504;9.588;2023-05-09T13:13:56;101245.69;;;24.09;39.96
8398;BME280;4236;54.504;9.588;2023-05-09T13:16:23;101232.34;;;23.82;38.76
8398;BME280;4236;54.504;9.588;2023-05-09T13:18:51;101235.31;;;23.81;38.32
8398;BME280;4236;54.504;9.588;2023-05-09T13:21:19;101235.59;;;23.69;38.35
8398;BME280;4236;54.504;9.588;2023-05-09T13:23:47;101241.31;;;23.78;38.17
8398;BME280;4236;54.504;9.588;2023-05-09T13:26:16;101241.31;;;23.73;37.88
8398;BME280;4236;54.504;9.588;2023-05-09T13:28:44;101228.81;;;23.92;37.90
8398;BME280;4236;54.504;9.588;2023-05-09T13:31:12;101236.13;;;24.01;38.49
8398;BME280;4236;54.504;9.588;2023-05-09T13:33:40;101227.44;;;24.09;37.69
8398;BME280;4236;54.504;9.588;2023-05-09T13:36:07;101224.47;;;24.16;35.98
8398;BME280;4236;54.504;9.588;2023-05-09T13:38:36;101221.72;;;24.26;35.05
8398;BME280;4236;54.504;9.588;2023-05-09T13:41:06;101215.94;;;24.38;34.27
8398;BME280;4236;54.504;9.588;2023-05-09T13:43:35;101209.59;;;24.72;34.14
8398;BME280;4236;54.504;9.588;2023-05-09T13:46:03;101214.19;;;24.82;33.86
8398;BME280;4236;54.504;9.588;2023-05-09T13:48:31;101202.50;;;24.71;33.90